createdAt,value
2022-09-13T00:02:37.396Z,14.70
2022-09-13T00:07:40.087Z,14.67
2022-09-13T00:12:42.958Z,14.66
2022-09-13T00:17:46.885Z,14.69
2022-09-13T00:22:49.585Z,14.65
2022-09-13T00:27:52.219Z,14.59
2022-09-13T00:32:56.459Z,14.55
2022-09-13T00:38:00.943Z,14.52
2022-09-13T00:43:03.790Z,14.50
2022-09-13T00:48:09.273Z,14.52
2022-09-13T00:53:14.127Z,14.52
2022-09-13T00:58:19.420Z,14.51
2022-09-13T01:03:25.270Z,14.51
2022-09-13T01:08:29.308Z,14.53
2022-09-13T01:13:33.562Z,14.56
2022-09-13T01:18:37.702Z,14.57
2022-09-13T01:24:08.260Z,14.57
2022-09-13T01:29:35.985Z,14.61
2022-09-13T01:34:50.023Z,14.61
2022-09-13T01:40:03.541Z,14.62
2022-09-13T01:45:15.409Z,14.67
2022-09-13T01:50:23.895Z,14.71
2022-09-13T01:55:32.211Z,14.69
2022-09-13T02:00:38.391Z,14.69
2022-09-13T02:05:45.781Z,14.70
2022-09-13T02:10:50.885Z,14.68
2022-09-13T02:15:58.188Z,14.72
2022-09-13T02:21:05.527Z,14.77
2022-09-13T02:26:09.100Z,14.76
2022-09-13T02:31:13.381Z,14.75
2022-09-13T02:36:21.113Z,14.73
2022-09-13T02:41:28.135Z,14.73
2022-09-13T02:46:48.263Z,14.76
2022-09-13T02:51:57.231Z,14.74
2022-09-13T02:57:02.913Z,14.71
2022-09-13T03:02:07.808Z,14.65
2022-09-13T03:07:13.691Z,14.65
2022-09-13T03:12:35.055Z,14.67
2022-09-13T03:17:46.841Z,14.62
2022-09-13T03:23:14.204Z,14.62
2022-09-13T03:28:23.270Z,14.63
2022-09-13T03:33:30.345Z,14.57
2022-09-13T03:38:38.827Z,14.48
2022-09-13T03:43:45.411Z,14.44
2022-09-13T03:48:48.650Z,14.42
2022-09-13T03:53:57.365Z,14.48
2022-09-13T03:58:59.941Z,14.46
2022-09-13T04:04:02.748Z,14.45
2022-09-13T04:09:06.704Z,14.52
2022-09-13T04:14:09.841Z,14.52
2022-09-13T04:19:12.414Z,14.48
2022-09-13T04:24:16.692Z,14.47
2022-09-13T04:29:19.344Z,14.48
2022-09-13T04:34:23.187Z,14.50
2022-09-13T04:39:27.200Z,14.54
2022-09-13T04:44:29.801Z,14.54
2022-09-13T04:49:32.401Z,14.53
2022-09-13T04:54:36.357Z,14.46
2022-09-13T04:59:38.926Z,14.47
2022-09-13T05:04:41.472Z,14.57
2022-09-13T05:09:45.408Z,14.63
2022-09-13T05:14:48.018Z,14.67
2022-09-13T05:19:50.767Z,14.73
2022-09-13T05:24:54.737Z,14.76
2022-09-13T05:29:57.418Z,14.81
2022-09-13T05:35:00.032Z,14.84
2022-09-13T05:40:12.491Z,14.89
2022-09-13T05:45:15.496Z,14.92
2022-09-13T05:50:44.810Z,14.99
2022-09-13T05:55:42.182Z,15.07
2022-09-13T06:00:44.859Z,15.22
2022-09-13T06:05:47.711Z,15.31
2022-09-13T06:10:57.119Z,15.45
2022-09-13T06:16:01.600Z,15.62
2022-09-13T06:21:06.451Z,15.70
2022-09-13T06:26:12.665Z,15.76
2022-09-13T06:31:16.780Z,15.80
2022-09-13T06:36:20.559Z,15.86
2022-09-13T06:41:27.129Z,15.81
2022-09-13T06:46:31.261Z,15.73
2022-09-13T06:51:34.699Z,15.62
2022-09-13T06:56:39.269Z,15.61
2022-09-13T07:01:44.598Z,15.56
2022-09-13T07:06:48.925Z,15.62
2022-09-13T07:11:55.128Z,15.69
2022-09-13T07:16:57.812Z,15.72
2022-09-13T07:22:00.949Z,15.76
2022-09-13T07:27:05.009Z,15.77
2022-09-13T07:32:07.788Z,15.80
2022-09-13T07:37:10.504Z,15.80
2022-09-13T07:42:14.503Z,15.83
2022-09-13T07:47:17.108Z,15.92
2022-09-13T07:52:19.810Z,16.10
2022-09-13T07:57:23.755Z,16.30
2022-09-13T08:02:26.894Z,16.40
2022-09-13T08:07:29.517Z,16.41
2022-09-13T08:12:33.489Z,16.48
2022-09-13T08:17:36.144Z,16.68
2022-09-13T08:22:38.744Z,16.83
2022-09-13T08:27:42.825Z,16.82
2022-09-13T08:32:45.562Z,16.84
2022-09-13T08:37:48.343Z,16.95
2022-09-13T08:42:55.493Z,17.16
2022-09-13T08:48:00.154Z,17.36
2022-09-13T08:53:16.611Z,17.43
2022-09-13T08:58:39.902Z,17.51
2022-09-13T09:03:44.957Z,17.60
2022-09-13T09:08:50.049Z,17.70
2022-09-13T09:13:59.364Z,17.85
2022-09-13T09:19:08.367Z,17.98
2022-09-13T09:24:12.700Z,18.08
2022-09-13T09:29:24.338Z,18.22
2022-09-13T09:34:42.482Z,18.39
2022-09-13T09:39:45.401Z,18.56
2022-09-13T09:44:52.069Z,18.76
2022-09-13T09:50:09.900Z,18.87
2022-09-13T09:55:21.046Z,19.00
2022-09-13T10:00:27.208Z,19.12
2022-09-13T10:05:30.248Z,19.13
2022-09-13T10:10:37.753Z,19.46
2022-09-13T10:15:54.014Z,19.82
2022-09-13T10:21:06.792Z,20.04
2022-09-13T10:26:12.171Z,20.26
2022-09-13T10:31:17.820Z,20.76
2022-09-13T10:36:48.125Z,20.86
2022-09-13T10:41:51.307Z,21.20
2022-09-13T10:46:55.754Z,21.33
2022-09-13T10:51:58.352Z,21.14
2022-09-13T10:57:30.580Z,21.06
2022-09-13T11:02:47.877Z,21.01
2022-09-13T11:08:21.320Z,21.11
2022-09-13T11:13:32.983Z,21.03
2022-09-13T11:18:51.797Z,20.93
2022-09-13T11:24:34.376Z,21.85
2022-09-13T11:29:52.968Z,22.55
2022-09-13T11:35:13.209Z,24.13
2022-09-13T11:40:30.804Z,25.16
2022-09-13T11:45:36.000Z,23.91
2022-09-13T11:50:45.964Z,24.28
2022-09-13T11:55:51.081Z,23.69
2022-09-13T12:00:56.786Z,23.79
2022-09-13T12:06:02.893Z,22.78
2022-09-13T12:11:14.055Z,23.17
2022-09-13T12:16:24.929Z,23.76
2022-09-13T12:21:33.262Z,22.78
2022-09-13T12:26:38.757Z,22.54
2022-09-13T12:31:41.773Z,22.07
2022-09-13T12:36:57.529Z,21.93
2022-09-13T12:42:32.817Z,21.96
2022-09-13T12:47:58.659Z,22.08
2022-09-13T12:53:10.885Z,22.00
2022-09-13T12:58:28.766Z,22.05
2022-09-13T13:03:33.812Z,22.01
2022-09-13T13:08:38.051Z,21.88
2022-09-13T13:13:42.496Z,21.78
2022-09-13T13:18:48.451Z,21.82
2022-09-13T13:24:24.571Z,22.34
2022-09-13T13:29:30.113Z,23.76
2022-09-13T13:34:39.816Z,23.58
2022-09-13T13:39:43.421Z,23.44
2022-09-13T13:45:16.114Z,23.56
2022-09-13T13:50:20.129Z,23.56
2022-09-13T13:55:47.026Z,23.30
2022-09-13T14:00:52.868Z,23.13
2022-09-13T14:05:59.939Z,22.93
2022-09-13T14:11:11.045Z,22.91
2022-09-13T14:16:24.913Z,23.01
2022-09-13T14:21:32.002Z,23.43
2022-09-13T14:26:34.730Z,23.50
2022-09-13T14:31:39.186Z,23.31
2022-09-13T14:36:52.379Z,23.40
2022-09-13T14:42:02.410Z,23.91
2022-09-13T14:47:13.330Z,23.78
2022-09-13T14:52:20.252Z,23.71
2022-09-13T14:57:26.410Z,23.29
2022-09-13T15:02:33.590Z,22.91
2022-09-13T15:07:37.750Z,22.59
2022-09-13T15:12:52.320Z,22.36
2022-09-13T15:17:58.411Z,22.20
2022-09-13T15:23:01.064Z,22.13
2022-09-13T15:28:03.662Z,22.05
2022-09-13T15:33:18.715Z,21.97
2022-09-13T15:38:27.098Z,21.93
2022-09-13T15:43:30.885Z,22.15
2022-09-13T15:48:36.185Z,22.17
2022-09-13T15:53:40.039Z,22.02
2022-09-13T15:58:42.846Z,21.86
2022-09-13T16:03:46.893Z,21.75
2022-09-13T16:08:49.607Z,21.68
2022-09-13T16:13:52.195Z,21.57
2022-09-13T16:18:56.198Z,21.50
2022-09-13T16:23:59.233Z,21.53
2022-09-13T16:29:01.914Z,21.66
2022-09-13T16:34:06.492Z,21.52
2022-09-13T16:39:09.243Z,21.39
2022-09-13T16:44:11.881Z,21.27
2022-09-13T16:49:16.025Z,21.13
2022-09-13T16:54:18.695Z,21.00
2022-09-13T16:59:21.411Z,20.89
2022-09-13T17:04:25.605Z,20.81
2022-09-13T17:09:28.519Z,20.68
2022-09-13T17:14:31.301Z,20.53
2022-09-13T17:19:35.661Z,20.42
2022-09-13T17:24:38.937Z,20.31
2022-09-13T17:29:41.621Z,20.21
2022-09-13T17:34:45.803Z,20.14
2022-09-13T17:39:48.614Z,20.06
2022-09-13T17:44:51.354Z,19.98
2022-09-13T17:49:56.057Z,19.87
2022-09-13T17:54:58.676Z,19.78
2022-09-13T18:00:01.722Z,19.71
2022-09-13T18:05:13.382Z,19.59
2022-09-13T18:10:42.592Z,19.50
2022-09-13T18:15:39.950Z,19.41
2022-09-13T18:20:47.286Z,19.35
2022-09-13T18:26:02.554Z,19.20
2022-09-13T18:31:09.096Z,19.02
2022-09-13T18:36:14.534Z,18.91
2022-09-13T18:41:18.641Z,18.85
2022-09-13T18:46:24.654Z,18.87
2022-09-13T18:51:30.781Z,18.75
2022-09-13T18:56:33.742Z,18.67
2022-09-13T19:01:38.165Z,18.60
2022-09-13T19:06:43.468Z,18.49
2022-09-13T19:11:48.376Z,18.39
2022-09-13T19:16:52.558Z,18.33
2022-09-13T19:21:56.545Z,18.25
2022-09-13T19:26:59.217Z,18.17
2022-09-13T19:32:02.210Z,18.07
2022-09-13T19:37:06.194Z,18.04
2022-09-13T19:42:09.068Z,18.06
2022-09-13T19:52:35.858Z,17.92
2022-09-13T19:57:41.925Z,17.91
2022-09-13T20:02:49.332Z,17.90
2022-09-13T20:07:53.305Z,17.97
2022-09-13T20:12:55.966Z,18.03
2022-09-13T20:17:58.966Z,18.00
2022-09-13T20:23:02.900Z,18.01
2022-09-13T20:28:05.628Z,17.96
2022-09-13T20:33:08.281Z,18.03
2022-09-13T20:38:12.297Z,18.00
2022-09-13T20:43:15.789Z,17.99
2022-09-13T20:48:19.690Z,18.04
2022-09-13T20:53:23.646Z,18.04
2022-09-13T20:58:26.292Z,18.08
2022-09-13T21:03:28.944Z,18.08
2022-09-13T21:08:42.434Z,18.12
2022-09-13T21:13:47.732Z,18.14
2022-09-13T21:18:50.872Z,18.15
2022-09-13T21:23:56.597Z,18.13
2022-09-13T21:29:00.008Z,18.10
2022-09-13T21:34:04.190Z,18.08
2022-09-13T21:39:08.846Z,18.06
2022-09-13T21:44:11.718Z,18.12
2022-09-13T21:49:14.390Z,18.17
2022-09-13T21:54:20.404Z,18.19
2022-09-13T21:59:23.973Z,18.22
2022-09-13T22:04:27.532Z,18.16
2022-09-13T22:09:31.716Z,18.20
2022-09-13T22:14:34.312Z,18.20
2022-09-13T22:19:36.933Z,18.15
2022-09-13T22:24:40.908Z,18.14
2022-09-13T22:29:43.773Z,18.11
2022-09-13T22:34:46.814Z,18.05
2022-09-13T22:39:50.911Z,18.00
2022-09-13T22:44:53.501Z,17.94
2022-09-13T22:49:56.075Z,17.87
2022-09-13T22:55:00.008Z,17.86
2022-09-13T23:00:03.114Z,17.83
2022-09-13T23:05:06.045Z,17.76
2022-09-13T23:10:10.860Z,17.71
2022-09-13T23:15:13.612Z,17.64
2022-09-13T23:20:16.392Z,17.61
2022-09-13T23:25:20.580Z,17.53
2022-09-13T23:30:23.524Z,17.47
2022-09-13T23:35:26.369Z,17.43
2022-09-13T23:40:31.781Z,17.39
2022-09-13T23:45:34.656Z,17.32
2022-09-13T23:50:37.404Z,17.31
2022-09-13T23:55:41.522Z,17.28
